sensor_id;sensor_type;location;lat;lon;timestamp;P1;durP1;ratioP1;P2;durP2;ratioP2
55641;SDS011;41509;53.108;6.100;2022-09-01T00:00:43;5.32;;;1.20;;
55641;SDS011;41509;53.108;6.100;2022-09-01T00:03:13;1.45;;;0.90;;
55641;SDS011;41509;53.108;6.100;2022-09-01T00:05:40;3.83;;;1.20;;
55641;SDS011;41509;53.108;6.100;2022-09-01T00:08:06;3.45;;;0.93;;
55641;SDS011;41509;53.108;6.100;2022-09-01T00:10:32;2.42;;;1.02;;
55641;SDS011;41509;53.108;6.100;2022-09-01T00:12:57;3.50;;;1.30;;
55641;SDS011;41509;53.108;6.100;2022-09-01T00:15:23;4.40;;;0.85;;
55641;SDS011;41509;53.108;6.100;2022-09-01T00:17:50;1.20;;;0.73;;
55641;SDS011;41509;53.108;6.100;2022-09-01T00:20:15;5.45;;;0.80;;
55641;SDS011;41509;53.108;6.100;2022-09-01T00:22:44;2.90;;;0.73;;
55641;SDS011;41509;53.108;6.100;2022-09-01T00:25:10;1.48;;;1.00;;
55641;SDS011;41509;53.108;6.100;2022-09-01T00:27:35;2.78;;;1.30;;
55641;SDS011;41509;53.108;6.100;2022-09-01T00:30:01;3.70;;;0.90;;
55641;SDS011;41509;53.108;6.100;2022-09-01T00:32:27;1.65;;;0.70;;
55641;SDS011;41509;53.108;6.100;2022-09-01T00:34:53;2.45;;;0.90;;
55641;SDS011;41509;53.108;6.100;2022-09-01T00:37:19;1.85;;;1.10;;
55641;SDS011;41509;53.108;6.100;2022-09-01T00:39:44;2.00;;;0.80;;
55641;SDS011;41509;53.108;6.100;2022-09-01T00:42:10;2.20;;;0.77;;
55641;SDS011;41509;53.108;6.100;2022-09-01T00:44:35;1.88;;;0.95;;
55641;SDS011;41509;53.108;6.100;2022-09-01T00:47:02;2.00;;;1.20;;
55641;SDS011;41509;53.108;6.100;2022-09-01T00:52:04;1.55;;;0.85;;
55641;SDS011;41509;53.108;6.100;2022-09-01T00:54:36;2.13;;;0.80;;
55641;SDS011;41509;53.108;6.100;2022-09-01T00:57:06;4.43;;;0.98;;
55641;SDS011;41509;53.108;6.100;2022-09-01T00:59:37;2.60;;;0.88;;
55641;SDS011;41509;53.108;6.100;2022-09-01T01:02:14;2.03;;;0.73;;
55641;SDS011;41509;53.108;6.100;2022-09-01T01:04:39;1.25;;;0.70;;
55641;SDS011;41509;53.108;6.100;2022-09-01T01:07:07;1.45;;;0.82;;
55641;SDS011;41509;53.108;6.100;2022-09-01T01:09:39;1.38;;;0.63;;
55641;SDS011;41509;53.108;6.100;2022-09-01T01:12:06;6.07;;;0.80;;
55641;SDS011;41509;53.108;6.100;2022-09-01T01:14:43;0.77;;;0.60;;
55641;SDS011;41509;53.108;6.100;2022-09-01T01:17:10;1.40;;;0.77;;
55641;SDS011;41509;53.108;6.100;2022-09-01T01:28:15;1.05;;;0.60;;
55641;SDS011;41509;53.108;6.100;2022-09-01T01:30:46;2.05;;;0.77;;
55641;SDS011;41509;53.108;6.100;2022-09-01T01:33:20;2.05;;;0.88;;
55641;SDS011;41509;53.108;6.100;2022-09-01T01:35:49;3.40;;;0.80;;
55641;SDS011;41509;53.108;6.100;2022-09-01T01:38:17;1.42;;;0.70;;
55641;SDS011;41509;53.108;6.100;2022-09-01T01:40:44;1.83;;;0.70;;
55641;SDS011;41509;53.108;6.100;2022-09-01T01:43:10;2.33;;;0.70;;
55641;SDS011;41509;53.108;6.100;2022-09-01T01:45:44;1.30;;;0.77;;
55641;SDS011;41509;53.108;6.100;2022-09-01T01:48:13;1.05;;;0.60;;
55641;SDS011;41509;53.108;6.100;2022-09-01T01:50:39;1.10;;;0.57;;
55641;SDS011;41509;53.108;6.100;2022-09-01T01:53:07;2.08;;;0.60;;
55641;SDS011;41509;53.108;6.100;2022-09-01T01:55:33;2.67;;;0.70;;
55641;SDS011;41509;53.108;6.100;2022-09-01T01:57:59;1.65;;;0.70;;
55641;SDS011;41509;53.108;6.100;2022-09-01T02:00:26;2.17;;;0.60;;
55641;SDS011;41509;53.108;6.100;2022-09-01T02:02:58;0.80;;;0.50;;
55641;SDS011;41509;53.108;6.100;2022-09-01T02:07:57;1.42;;;0.68;;
55641;SDS011;41509;53.108;6.100;2022-09-01T02:10:27;1.27;;;0.80;;
55641;SDS011;41509;53.108;6.100;2022-09-01T02:12:55;1.40;;;0.45;;
55641;SDS011;41509;53.108;6.100;2022-09-01T02:15:27;1.27;;;0.65;;
55641;SDS011;41509;53.108;6.100;2022-09-01T02:17:54;1.75;;;0.70;;
55641;SDS011;41509;53.108;6.100;2022-09-01T02:20:24;1.55;;;0.75;;
55641;SDS011;41509;53.108;6.100;2022-09-01T02:22:53;1.42;;;0.70;;
55641;SDS011;41509;53.108;6.100;2022-09-01T02:25:20;0.80;;;0.50;;
55641;SDS011;41509;53.108;6.100;2022-09-01T02:27:49;2.30;;;0.70;;
55641;SDS011;41509;53.108;6.100;2022-09-01T02:30:17;1.75;;;0.80;;
55641;SDS011;41509;53.108;6.100;2022-09-01T02:35:09;1.63;;;0.60;;
55641;SDS011;41509;53.108;6.100;2022-09-01T02:40:04;1.88;;;0.68;;
55641;SDS011;41509;53.108;6.100;2022-09-01T02:42:34;1.58;;;0.60;;
55641;SDS011;41509;53.108;6.100;2022-09-01T02:45:05;2.10;;;0.70;;
55641;SDS011;41509;53.108;6.100;2022-09-01T02:47:39;1.20;;;0.70;;
55641;SDS011;41509;53.108;6.100;2022-09-01T02:50:09;1.77;;;0.80;;
55641;SDS011;41509;53.108;6.100;2022-09-01T02:52:41;1.73;;;0.93;;
55641;SDS011;41509;53.108;6.100;2022-09-01T02:55:07;1.35;;;0.63;;
55641;SDS011;41509;53.108;6.100;2022-09-01T02:57:33;2.03;;;0.80;;
55641;SDS011;41509;53.108;6.100;2022-09-01T02:59:59;1.55;;;0.90;;
55641;SDS011;41509;53.108;6.100;2022-09-01T03:04:53;2.30;;;0.83;;
55641;SDS011;41509;53.108;6.100;2022-09-01T03:07:20;2.25;;;0.90;;
55641;SDS011;41509;53.108;6.100;2022-09-01T03:09:50;1.00;;;0.60;;
55641;SDS011;41509;53.108;6.100;2022-09-01T03:12:16;3.13;;;0.80;;
55641;SDS011;41509;53.108;6.100;2022-09-01T03:14:43;1.85;;;0.70;;
55641;SDS011;41509;53.108;6.100;2022-09-01T03:17:09;5.07;;;0.75;;
55641;SDS011;41509;53.108;6.100;2022-09-01T03:22:09;2.88;;;1.00;;
55641;SDS011;41509;53.108;6.100;2022-09-01T03:24:35;1.83;;;0.93;;
55641;SDS011;41509;53.108;6.100;2022-09-01T03:27:00;2.27;;;1.03;;
55641;SDS011;41509;53.108;6.100;2022-09-01T03:29:26;1.65;;;0.93;;
55641;SDS011;41509;53.108;6.100;2022-09-01T03:31:52;1.55;;;0.80;;
55641;SDS011;41509;53.108;6.100;2022-09-01T03:34:20;1.00;;;0.80;;
55641;SDS011;41509;53.108;6.100;2022-09-01T03:36:48;1.38;;;0.80;;
55641;SDS011;41509;53.108;6.100;2022-09-01T03:41:42;2.03;;;0.70;;
55641;SDS011;41509;53.108;6.100;2022-09-01T03:44:09;1.77;;;0.98;;
55641;SDS011;41509;53.108;6.100;2022-09-01T03:46:37;1.30;;;0.75;;
55641;SDS011;41509;53.108;6.100;2022-09-01T03:49:05;1.10;;;0.60;;
55641;SDS011;41509;53.108;6.100;2022-09-01T03:51:37;1.73;;;1.10;;
55641;SDS011;41509;53.108;6.100;2022-09-01T03:54:03;2.85;;;1.38;;
55641;SDS011;41509;53.108;6.100;2022-09-01T03:56:28;1.90;;;0.90;;
55641;SDS011;41509;53.108;6.100;2022-09-01T03:58:55;3.13;;;0.95;;
55641;SDS011;41509;53.108;6.100;2022-09-01T04:01:23;1.15;;;0.80;;
55641;SDS011;41509;53.108;6.100;2022-09-01T04:03:50;1.45;;;0.85;;
55641;SDS011;41509;53.108;6.100;2022-09-01T04:06:16;1.80;;;0.95;;
55641;SDS011;41509;53.108;6.100;2022-09-01T04:08:48;1.40;;;0.88;;
55641;SDS011;41509;53.108;6.100;2022-09-01T04:11:19;3.30;;;0.80;;
55641;SDS011;41509;53.108;6.100;2022-09-01T04:13:47;1.20;;;0.70;;
55641;SDS011;41509;53.108;6.100;2022-09-01T04:19:02;1.63;;;1.05;;
55641;SDS011;41509;53.108;6.100;2022-09-01T04:21:39;1.63;;;0.80;;
55641;SDS011;41509;53.108;6.100;2022-09-01T04:24:07;1.70;;;1.10;;
55641;SDS011;41509;53.108;6.100;2022-09-01T04:26:36;2.03;;;1.05;;
55641;SDS011;41509;53.108;6.100;2022-09-01T04:29:02;1.67;;;0.90;;
55641;SDS011;41509;53.108;6.100;2022-09-01T04:31:28;1.42;;;0.90;;
55641;SDS011;41509;53.108;6.100;2022-09-01T04:33:56;2.22;;;0.90;;
55641;SDS011;41509;53.108;6.100;2022-09-01T04:36:26;2.00;;;0.88;;
55641;SDS011;41509;53.108;6.100;2022-09-01T04:38:57;2.42;;;1.02;;
55641;SDS011;41509;53.108;6.100;2022-09-01T04:41:26;1.73;;;0.80;;
55641;SDS011;41509;53.108;6.100;2022-09-01T04:43:56;2.70;;;1.00;;
55641;SDS011;41509;53.108;6.100;2022-09-01T04:46:23;1.48;;;0.77;;
55641;SDS011;41509;53.108;6.100;2022-09-01T04:48:54;2.00;;;1.17;;
55641;SDS011;41509;53.108;6.100;2022-09-01T04:53:46;1.65;;;0.82;;
55641;SDS011;41509;53.108;6.100;2022-09-01T04:56:16;1.25;;;0.80;;
55641;SDS011;41509;53.108;6.100;2022-09-01T04:58:47;1.52;;;0.93;;
55641;SDS011;41509;53.108;6.100;2022-09-01T05:01:23;1.60;;;1.00;;
55641;SDS011;41509;53.108;6.100;2022-09-01T05:03:50;2.35;;;1.20;;
55641;SDS011;41509;53.108;6.100;2022-09-01T05:06:27;2.03;;;1.08;;
55641;SDS011;41509;53.108;6.100;2022-09-01T05:08:54;3.83;;;1.08;;
55641;SDS011;41509;53.108;6.100;2022-09-01T05:11:21;2.05;;;1.15;;
55641;SDS011;41509;53.108;6.100;2022-09-01T05:16:15;1.80;;;1.00;;
55641;SDS011;41509;53.108;6.100;2022-09-01T05:18:44;3.13;;;1.00;;
55641;SDS011;41509;53.108;6.100;2022-09-01T05:21:12;3.38;;;1.00;;
55641;SDS011;41509;53.108;6.100;2022-09-01T05:23:41;3.67;;;1.05;;
55641;SDS011;41509;53.108;6.100;2022-09-01T05:26:12;3.80;;;1.33;;
55641;SDS011;41509;53.108;6.100;2022-09-01T05:28:44;2.90;;;0.85;;
55641;SDS011;41509;53.108;6.100;2022-09-01T05:31:10;3.15;;;1.00;;
55641;SDS011;41509;53.108;6.100;2022-09-01T05:36:10;1.98;;;1.00;;
55641;SDS011;41509;53.108;6.100;2022-09-01T05:38:36;2.40;;;1.00;;
55641;SDS011;41509;53.108;6.100;2022-09-01T05:41:06;1.92;;;1.10;;
55641;SDS011;41509;53.108;6.100;2022-09-01T05:43:34;4.10;;;1.20;;
55641;SDS011;41509;53.108;6.100;2022-09-01T05:46:04;5.35;;;1.38;;
55641;SDS011;41509;53.108;6.100;2022-09-01T05:48:33;2.60;;;1.48;;
55641;SDS011;41509;53.108;6.100;2022-09-01T05:51:04;3.03;;;1.20;;
55641;SDS011;41509;53.108;6.100;2022-09-01T05:53:32;3.40;;;1.38;;
55641;SDS011;41509;53.108;6.100;2022-09-01T05:55:58;2.53;;;1.30;;
55641;SDS011;41509;53.108;6.100;2022-09-01T05:58:31;1.55;;;1.10;;
55641;SDS011;41509;53.108;6.100;2022-09-01T06:00:58;2.63;;;1.08;;
55641;SDS011;41509;53.108;6.100;2022-09-01T06:03:25;2.20;;;1.50;;
55641;SDS011;41509;53.108;6.100;2022-09-01T06:05:52;2.30;;;1.05;;
55641;SDS011;41509;53.108;6.100;2022-09-01T06:08:19;2.15;;;1.35;;
55641;SDS011;41509;53.108;6.100;2022-09-01T06:10:47;2.92;;;1.42;;
55641;SDS011;41509;53.108;6.100;2022-09-01T06:13:14;1.80;;;1.20;;
55641;SDS011;41509;53.108;6.100;2022-09-01T06:15:41;2.42;;;1.33;;
55641;SDS011;41509;53.108;6.100;2022-09-01T06:18:11;2.20;;;1.20;;
55641;SDS011;41509;53.108;6.100;2022-09-01T06:20:37;1.70;;;0.93;;
55641;SDS011;41509;53.108;6.100;2022-09-01T06:23:07;2.30;;;1.20;;
55641;SDS011;41509;53.108;6.100;2022-09-01T06:25:38;2.00;;;1.25;;
55641;SDS011;41509;53.108;6.100;2022-09-01T06:28:10;2.30;;;1.20;;
55641;SDS011;41509;53.108;6.100;2022-09-01T06:30:40;3.03;;;1.38;;
55641;SDS011;41509;53.108;6.100;2022-09-01T06:33:06;3.08;;;1.65;;
55641;SDS011;41509;53.108;6.100;2022-09-01T06:35:33;1.80;;;1.05;;
55641;SDS011;41509;53.108;6.100;2022-09-01T06:38:01;4.97;;;1.52;;
55641;SDS011;41509;53.108;6.100;2022-09-01T06:40:27;3.35;;;1.17;;
55641;SDS011;41509;53.108;6.100;2022-09-01T06:42:52;2.42;;;1.05;;
55641;SDS011;41509;53.108;6.100;2022-09-01T06:45:20;3.88;;;2.15;;
55641;SDS011;41509;53.108;6.100;2022-09-01T06:47:47;2.55;;;1.40;;
55641;SDS011;41509;53.108;6.100;2022-09-01T06:50:16;5.47;;;1.20;;
55641;SDS011;41509;53.108;6.100;2022-09-01T06:52:44;2.35;;;1.20;;
55641;SDS011;41509;53.108;6.100;2022-09-01T06:57:37;2.22;;;1.30;;
55641;SDS011;41509;53.108;6.100;2022-09-01T07:02:42;3.83;;;1.30;;
55641;SDS011;41509;53.108;6.100;2022-09-01T07:05:09;1.58;;;0.90;;
55641;SDS011;41509;53.108;6.100;2022-09-01T07:10:02;3.08;;;1.35;;
55641;SDS011;41509;53.108;6.100;2022-09-01T07:12:28;1.55;;;0.75;;
55641;SDS011;41509;53.108;6.100;2022-09-01T07:14:56;2.42;;;1.25;;
55641;SDS011;41509;53.108;6.100;2022-09-01T07:17:23;2.88;;;1.27;;
55641;SDS011;41509;53.108;6.100;2022-09-01T07:19:50;3.08;;;1.25;;
55641;SDS011;41509;53.108;6.100;2022-09-01T07:22:16;3.28;;;1.10;;
55641;SDS011;41509;53.108;6.100;2022-09-01T07:24:41;5.50;;;1.30;;
55641;SDS011;41509;53.108;6.100;2022-09-01T07:27:10;3.33;;;1.05;;
55641;SDS011;41509;53.108;6.100;2022-09-01T07:32:03;3.78;;;1.10;;
55641;SDS011;41509;53.108;6.100;2022-09-01T07:36:55;1.88;;;0.90;;
55641;SDS011;41509;53.108;6.100;2022-09-01T07:39:21;1.38;;;0.80;;
55641;SDS011;41509;53.108;6.100;2022-09-01T07:41:47;2.42;;;1.13;;
55641;SDS011;41509;53.108;6.100;2022-09-01T07:44:12;3.53;;;1.07;;
55641;SDS011;41509;53.108;6.100;2022-09-01T07:46:39;4.57;;;1.10;;
55641;SDS011;41509;53.108;6.100;2022-09-01T07:49:05;2.35;;;1.17;;
55641;SDS011;41509;53.108;6.100;2022-09-01T07:51:31;1.35;;;0.75;;
55641;SDS011;41509;53.108;6.100;2022-09-01T07:53:59;1.60;;;0.82;;
55641;SDS011;41509;53.108;6.100;2022-09-01T07:56:26;1.90;;;1.17;;
55641;SDS011;41509;53.108;6.100;2022-09-01T07:58:54;2.17;;;1.00;;
55641;SDS011;41509;53.108;6.100;2022-09-01T08:01:22;1.40;;;0.85;;
55641;SDS011;41509;53.108;6.100;2022-09-01T08:03:54;1.83;;;0.82;;
55641;SDS011;41509;53.108;6.100;2022-09-01T08:06:23;1.35;;;0.80;;
55641;SDS011;41509;53.108;6.100;2022-09-01T08:08:51;3.67;;;1.00;;
55641;SDS011;41509;53.108;6.100;2022-09-01T08:11:20;2.30;;;1.35;;
55641;SDS011;41509;53.108;6.100;2022-09-01T08:13:53;2.35;;;1.08;;
55641;SDS011;41509;53.108;6.100;2022-09-01T08:16:19;2.58;;;0.80;;
55641;SDS011;41509;53.108;6.100;2022-09-01T08:18:46;1.25;;;0.60;;
55641;SDS011;41509;53.108;6.100;2022-09-01T08:23:38;3.22;;;0.90;;
55641;SDS011;41509;53.108;6.100;2022-09-01T08:26:05;2.22;;;0.80;;
55641;SDS011;41509;53.108;6.100;2022-09-01T08:28:33;1.50;;;0.82;;
55641;SDS011;41509;53.108;6.100;2022-09-01T08:30:59;1.70;;;0.90;;
55641;SDS011;41509;53.108;6.100;2022-09-01T08:33:25;1.55;;;0.80;;
55641;SDS011;41509;53.108;6.100;2022-09-01T08:35:51;2.50;;;1.63;;
55641;SDS011;41509;53.108;6.100;2022-09-01T08:38:17;2.47;;;0.65;;
55641;SDS011;41509;53.108;6.100;2022-09-01T08:40:48;1.40;;;0.85;;
55641;SDS011;41509;53.108;6.100;2022-09-01T08:46:07;2.63;;;1.00;;
55641;SDS011;41509;53.108;6.100;2022-09-01T08:48:39;2.25;;;0.90;;
55641;SDS011;41509;53.108;6.100;2022-09-01T08:51:29;2.45;;;0.80;;
55641;SDS011;41509;53.108;6.100;2022-09-01T08:54:28;1.60;;;0.90;;
55641;SDS011;41509;53.108;6.100;2022-09-01T08:57:05;1.55;;;0.95;;
55641;SDS011;41509;53.108;6.100;2022-09-01T08:59:35;2.08;;;0.75;;
55641;SDS011;41509;53.108;6.100;2022-09-01T09:02:22;2.03;;;0.68;;
55641;SDS011;41509;53.108;6.100;2022-09-01T09:10:09;1.45;;;0.47;;
55641;SDS011;41509;53.108;6.100;2022-09-01T09:12:48;1.70;;;0.60;;
55641;SDS011;41509;53.108;6.100;2022-09-01T09:20:54;1.30;;;0.45;;
55641;SDS011;41509;53.108;6.100;2022-09-01T09:23:27;1.23;;;0.45;;
55641;SDS011;41509;53.108;6.100;2022-09-01T09:25:57;1.45;;;0.68;;
55641;SDS011;41509;53.108;6.100;2022-09-01T09:28:23;0.73;;;0.40;;
55641;SDS011;41509;53.108;6.100;2022-09-01T09:30:48;1.25;;;0.57;;
55641;SDS011;41509;53.108;6.100;2022-09-01T09:33:35;0.95;;;0.50;;
55641;SDS011;41509;53.108;6.100;2022-09-01T09:36:14;1.50;;;0.70;;
55641;SDS011;41509;53.108;6.100;2022-09-01T09:38:43;1.25;;;0.40;;
55641;SDS011;41509;53.108;6.100;2022-09-01T09:41:17;1.30;;;0.50;;
55641;SDS011;41509;53.108;6.100;2022-09-01T09:52:12;1.73;;;0.50;;
55641;SDS011;41509;53.108;6.100;2022-09-01T09:54:34;0.80;;;0.50;;
55641;SDS011;41509;53.108;6.100;2022-09-01T09:57:22;1.40;;;0.32;;
55641;SDS011;41509;53.108;6.100;2022-09-01T09:59:53;1.23;;;0.60;;
55641;SDS011;41509;53.108;6.100;2022-09-01T10:02:36;1.13;;;0.40;;
55641;SDS011;41509;53.108;6.100;2022-09-01T10:08:03;1.50;;;0.50;;
55641;SDS011;41509;53.108;6.100;2022-09-01T10:13:15;1.33;;;0.50;;
55641;SDS011;41509;53.108;6.100;2022-09-01T10:15:48;1.15;;;0.43;;
55641;SDS011;41509;53.108;6.100;2022-09-01T10:18:21;2.58;;;0.30;;
55641;SDS011;41509;53.108;6.100;2022-09-01T10:21:10;0.82;;;0.30;;
55641;SDS011;41509;53.108;6.100;2022-09-01T10:23:42;1.23;;;0.50;;
55641;SDS011;41509;53.108;6.100;2022-09-01T10:28:51;1.27;;;0.38;;
55641;SDS011;41509;53.108;6.100;2022-09-01T10:31:25;0.68;;;0.35;;
55641;SDS011;41509;53.108;6.100;2022-09-01T10:33:51;0.70;;;0.40;;
55641;SDS011;41509;53.108;6.100;2022-09-01T10:38:45;1.20;;;0.30;;
55641;SDS011;41509;53.108;6.100;2022-09-01T10:41:41;0.90;;;0.45;;
55641;SDS011;41509;53.108;6.100;2022-09-01T10:44:28;0.32;;;0.13;;
55641;SDS011;41509;53.108;6.100;2022-09-01T10:46:59;0.35;;;0.30;;
55641;SDS011;41509;53.108;6.100;2022-09-01T10:57:10;1.05;;;0.28;;
55641;SDS011;41509;53.108;6.100;2022-09-01T11:13:39;0.82;;;0.30;;
55641;SDS011;41509;53.108;6.100;2022-09-01T11:21:39;1.38;;;0.30;;
55641;SDS011;41509;53.108;6.100;2022-09-01T11:27:03;1.08;;;0.50;;
55641;SDS011;41509;53.108;6.100;2022-09-01T11:32:26;0.93;;;0.30;;
55641;SDS011;41509;53.108;6.100;2022-09-01T11:34:57;0.47;;;0.20;;
55641;SDS011;41509;53.108;6.100;2022-09-01T11:37:27;0.95;;;0.40;;
55641;SDS011;41509;53.108;6.100;2022-09-01T11:44:59;0.98;;;0.20;;
55641;SDS011;41509;53.108;6.100;2022-09-01T11:47:39;0.63;;;0.22;;
55641;SDS011;41509;53.108;6.100;2022-09-01T11:52:40;1.38;;;0.30;;
55641;SDS011;41509;53.108;6.100;2022-09-01T11:57:34;0.50;;;0.25;;
55641;SDS011;41509;53.108;6.100;2022-09-01T12:00:06;0.63;;;0.32;;
55641;SDS011;41509;53.108;6.100;2022-09-01T12:02:35;0.90;;;0.20;;
55641;SDS011;41509;53.108;6.100;2022-09-01T12:07:54;0.63;;;0.30;;
55641;SDS011;41509;53.108;6.100;2022-09-01T12:10:29;1.08;;;0.25;;
55641;SDS011;41509;53.108;6.100;2022-09-01T12:13:11;2.65;;;0.50;;
55641;SDS011;41509;53.108;6.100;2022-09-01T12:15:51;1.23;;;0.32;;
55641;SDS011;41509;53.108;6.100;2022-09-01T12:18:19;0.50;;;0.20;;
55641;SDS011;41509;53.108;6.100;2022-09-01T12:20:49;0.82;;;0.32;;
55641;SDS011;41509;53.108;6.100;2022-09-01T12:23:38;0.20;;;0.15;;
55641;SDS011;41509;53.108;6.100;2022-09-01T12:26:11;1.10;;;0.32;;
55641;SDS011;41509;53.108;6.100;2022-09-01T12:28:38;0.73;;;0.35;;
55641;SDS011;41509;53.108;6.100;2022-09-01T12:31:06;1.25;;;0.40;;
55641;SDS011;41509;53.108;6.100;2022-09-01T12:33:38;0.63;;;0.20;;
55641;SDS011;41509;53.108;6.100;2022-09-01T12:36:23;0.82;;;0.32;;
55641;SDS011;41509;53.108;6.100;2022-09-01T12:38:59;0.68;;;0.35;;
55641;SDS011;41509;53.108;6.100;2022-09-01T12:41:42;0.45;;;0.25;;
55641;SDS011;41509;53.108;6.100;2022-09-01T12:52:53;1.35;;;0.40;;
55641;SDS011;41509;53.108;6.100;2022-09-01T12:55:24;0.77;;;0.30;;
55641;SDS011;41509;53.108;6.100;2022-09-01T12:57:51;0.47;;;0.22;;
55641;SDS011;41509;53.108;6.100;2022-09-01T13:00:23;2.83;;;0.40;;
55641;SDS011;41509;53.108;6.100;2022-09-01T13:05:28;3.03;;;0.30;;
55641;SDS011;41509;53.108;6.100;2022-09-01T13:07:55;0.75;;;0.22;;
55641;SDS011;41509;53.108;6.100;2022-09-01T13:10:24;1.23;;;0.32;;
55641;SDS011;41509;53.108;6.100;2022-09-01T13:12:52;2.17;;;0.30;;
55641;SDS011;41509;53.108;6.100;2022-09-01T13:15:19;0.45;;;0.20;;
55641;SDS011;41509;53.108;6.100;2022-09-01T13:17:45;2.67;;;0.35;;
55641;SDS011;41509;53.108;6.100;2022-09-01T13:20:12;0.22;;;0.15;;
55641;SDS011;41509;53.108;6.100;2022-09-01T13:22:37;1.60;;;0.38;;
55641;SDS011;41509;53.108;6.100;2022-09-01T13:25:09;0.45;;;0.20;;
55641;SDS011;41509;53.108;6.100;2022-09-01T13:27:37;1.67;;;0.30;;
55641;SDS011;41509;53.108;6.100;2022-09-01T13:30:08;0.30;;;0.20;;
55641;SDS011;41509;53.108;6.100;2022-09-01T13:32:35;1.30;;;0.40;;
55641;SDS011;41509;53.108;6.100;2022-09-01T13:35:02;0.95;;;0.70;;
55641;SDS011;41509;53.108;6.100;2022-09-01T13:37:27;1.67;;;0.40;;
55641;SDS011;41509;53.108;6.100;2022-09-01T13:40:03;0.75;;;0.30;;
55641;SDS011;41509;53.108;6.100;2022-09-01T13:42:31;1.13;;;0.52;;
55641;SDS011;41509;53.108;6.100;2022-09-01T13:44:59;0.68;;;0.32;;
55641;SDS011;41509;53.108;6.100;2022-09-01T13:47:28;1.65;;;0.90;;
55641;SDS011;41509;53.108;6.100;2022-09-01T13:49:53;1.17;;;0.43;;
55641;SDS011;41509;53.108;6.100;2022-09-01T13:52:19;1.85;;;0.30;;
55641;SDS011;41509;53.108;6.100;2022-09-01T13:54:47;0.80;;;0.40;;
55641;SDS011;41509;53.108;6.100;2022-09-01T13:57:13;0.98;;;0.30;;
55641;SDS011;41509;53.108;6.100;2022-09-01T13:59:40;0.50;;;0.20;;
55641;SDS011;41509;53.108;6.100;2022-09-01T14:02:06;0.70;;;0.40;;
55641;SDS011;41509;53.108;6.100;2022-09-01T14:04:31;1.42;;;0.55;;
55641;SDS011;41509;53.108;6.100;2022-09-01T14:06:57;2.00;;;0.70;;
55641;SDS011;41509;53.108;6.100;2022-09-01T14:09:23;2.90;;;0.50;;
55641;SDS011;41509;53.108;6.100;2022-09-01T14:11:51;0.52;;;0.30;;
55641;SDS011;41509;53.108;6.100;2022-09-01T14:14:18;0.85;;;0.30;;
55641;SDS011;41509;53.108;6.100;2022-09-01T14:16:44;0.60;;;0.20;;
55641;SDS011;41509;53.108;6.100;2022-09-01T14:19:10;0.73;;;0.40;;
55641;SDS011;41509;53.108;6.100;2022-09-01T14:21:36;4.00;;;0.50;;
55641;SDS011;41509;53.108;6.100;2022-09-01T14:24:03;1.27;;;0.40;;
55641;SDS011;41509;53.108;6.100;2022-09-01T14:26:29;0.80;;;0.22;;
55641;SDS011;41509;53.108;6.100;2022-09-01T14:28:54;0.28;;;0.10;;
55641;SDS011;41509;53.108;6.100;2022-09-01T14:31:20;1.08;;;0.30;;
55641;SDS011;41509;53.108;6.100;2022-09-01T14:33:46;1.60;;;0.15;;
55641;SDS011;41509;53.108;6.100;2022-09-01T14:36:17;0.63;;;0.22;;
55641;SDS011;41509;53.108;6.100;2022-09-01T14:38:47;0.35;;;0.28;;
55641;SDS011;41509;53.108;6.100;2022-09-01T14:41:15;1.00;;;0.30;;
55641;SDS011;41509;53.108;6.100;2022-09-01T14:43:45;1.48;;;0.32;;
55641;SDS011;41509;53.108;6.100;2022-09-01T14:46:11;1.60;;;0.45;;
55641;SDS011;41509;53.108;6.100;2022-09-01T14:48:37;0.82;;;0.32;;
55641;SDS011;41509;53.108;6.100;2022-09-01T14:51:04;3.30;;;0.30;;
55641;SDS011;41509;53.108;6.100;2022-09-01T14:53:31;0.90;;;0.22;;
55641;SDS011;41509;53.108;6.100;2022-09-01T14:55:57;0.73;;;0.22;;
55641;SDS011;41509;53.108;6.100;2022-09-01T14:58:24;0.73;;;0.22;;
55641;SDS011;41509;53.108;6.100;2022-09-01T15:00:52;0.88;;;0.32;;
55641;SDS011;41509;53.108;6.100;2022-09-01T15:03:19;0.60;;;0.22;;
55641;SDS011;41509;53.108;6.100;2022-09-01T15:05:50;0.57;;;0.30;;
55641;SDS011;41509;53.108;6.100;2022-09-01T15:08:16;1.65;;;0.70;;
55641;SDS011;41509;53.108;6.100;2022-09-01T15:10:42;0.77;;;0.32;;
55641;SDS011;41509;53.108;6.100;2022-09-01T15:13:07;1.45;;;0.50;;
55641;SDS011;41509;53.108;6.100;2022-09-01T15:15:33;0.73;;;0.38;;
55641;SDS011;41509;53.108;6.100;2022-09-01T15:17:59;1.08;;;0.40;;
55641;SDS011;41509;53.108;6.100;2022-09-01T15:20:25;0.40;;;0.20;;
55641;SDS011;41509;53.108;6.100;2022-09-01T15:23:10;1.05;;;0.40;;
55641;SDS011;41509;53.108;6.100;2022-09-01T15:25:41;2.20;;;0.40;;
55641;SDS011;41509;53.108;6.100;2022-09-01T15:28:07;3.63;;;0.50;;
55641;SDS011;41509;53.108;6.100;2022-09-01T15:30:33;0.73;;;0.20;;
55641;SDS011;41509;53.108;6.100;2022-09-01T15:32:59;0.60;;;0.30;;
55641;SDS011;41509;53.108;6.100;2022-09-01T15:35:26;2.15;;;0.30;;
55641;SDS011;41509;53.108;6.100;2022-09-01T15:37:53;0.57;;;0.22;;
55641;SDS011;41509;53.108;6.100;2022-09-01T15:40:21;1.10;;;0.50;;
55641;SDS011;41509;53.108;6.100;2022-09-01T15:42:48;0.43;;;0.20;;
55641;SDS011;41509;53.108;6.100;2022-09-01T15:45:15;4.60;;;0.43;;
55641;SDS011;41509;53.108;6.100;2022-09-01T15:47:42;1.27;;;0.25;;
55641;SDS011;41509;53.108;6.100;2022-09-01T15:50:09;1.40;;;0.30;;
55641;SDS011;41509;53.108;6.100;2022-09-01T15:52:56;3.78;;;0.55;;
55641;SDS011;41509;53.108;6.100;2022-09-01T15:57:51;0.43;;;0.30;;
55641;SDS011;41509;53.108;6.100;2022-09-01T16:00:19;0.82;;;0.45;;
55641;SDS011;41509;53.108;6.100;2022-09-01T16:02:45;2.13;;;0.50;;
55641;SDS011;41509;53.108;6.100;2022-09-01T16:05:11;1.52;;;0.40;;
55641;SDS011;41509;53.108;6.100;2022-09-01T16:07:38;0.52;;;0.20;;
55641;SDS011;41509;53.108;6.100;2022-09-01T16:10:05;1.42;;;0.60;;
55641;SDS011;41509;53.108;6.100;2022-09-01T16:12:36;1.02;;;0.50;;
55641;SDS011;41509;53.108;6.100;2022-09-01T16:15:08;1.08;;;0.50;;
55641;SDS011;41509;53.108;6.100;2022-09-01T16:20:24;1.88;;;0.60;;
55641;SDS011;41509;53.108;6.100;2022-09-01T16:22:55;0.93;;;0.50;;
55641;SDS011;41509;53.108;6.100;2022-09-01T16:25:31;3.03;;;0.90;;
55641;SDS011;41509;53.108;6.100;2022-09-01T16:28:01;2.13;;;0.47;;
55641;SDS011;41509;53.108;6.100;2022-09-01T16:30:42;1.15;;;0.60;;
55641;SDS011;41509;53.108;6.100;2022-09-01T16:33:10;2.30;;;1.05;;
55641;SDS011;41509;53.108;6.100;2022-09-01T16:35:47;5.97;;;2.92;;
55641;SDS011;41509;53.108;6.100;2022-09-01T16:47:47;0.75;;;0.40;;
55641;SDS011;41509;53.108;6.100;2022-09-01T16:50:24;0.52;;;0.30;;
55641;SDS011;41509;53.108;6.100;2022-09-01T16:58:17;1.02;;;0.40;;
55641;SDS011;41509;53.108;6.100;2022-09-01T17:15:17;1.13;;;0.40;;
55641;SDS011;41509;53.108;6.100;2022-09-01T17:20:33;2.72;;;0.32;;
55641;SDS011;41509;53.108;6.100;2022-09-01T17:23:04;0.93;;;0.30;;
55641;SDS011;41509;53.108;6.100;2022-09-01T17:25:38;7.85;;;0.40;;
55641;SDS011;41509;53.108;6.100;2022-09-01T17:28:13;0.77;;;0.38;;
55641;SDS011;41509;53.108;6.100;2022-09-01T17:31:33;1.30;;;0.40;;
55641;SDS011;41509;53.108;6.100;2022-09-01T17:39:21;4.30;;;0.43;;
55641;SDS011;41509;53.108;6.100;2022-09-01T17:42:01;1.15;;;0.30;;
55641;SDS011;41509;53.108;6.100;2022-09-01T17:44:44;2.33;;;0.45;;
55641;SDS011;41509;53.108;6.100;2022-09-01T17:47:25;1.48;;;0.50;;
55641;SDS011;41509;53.108;6.100;2022-09-01T17:55:49;0.68;;;0.25;;
55641;SDS011;41509;53.108;6.100;2022-09-01T18:09:48;1.38;;;0.30;;
55641;SDS011;41509;53.108;6.100;2022-09-01T18:12:19;1.67;;;0.40;;
55641;SDS011;41509;53.108;6.100;2022-09-01T18:15:01;1.42;;;0.45;;
55641;SDS011;41509;53.108;6.100;2022-09-01T18:21:04;1.00;;;0.50;;
55641;SDS011;41509;53.108;6.100;2022-09-01T18:23:46;1.55;;;0.50;;
55641;SDS011;41509;53.108;6.100;2022-09-01T18:28:44;0.85;;;0.30;;